createdAt,value
2017-01-25T00:00:24.278Z,17.63
2017-01-25T00:01:04.907Z,17.59
2017-01-25T00:01:45.625Z,17.64
2017-01-25T00:02:26.269Z,17.67
2017-01-25T00:03:06.901Z,17.66
2017-01-25T00:03:47.542Z,17.63
2017-01-25T00:04:28.157Z,17.66
2017-01-25T00:05:08.817Z,17.64
2017-01-25T00:05:49.445Z,17.62
2017-01-25T00:06:30.078Z,17.64
2017-01-25T00:07:10.721Z,17.69
2017-01-25T00:07:51.441Z,17.69
2017-01-25T00:08:32.076Z,17.66
2017-01-25T00:09:12.820Z,17.63
2017-01-25T00:09:53.453Z,17.66
2017-01-25T00:10:34.084Z,17.59
2017-01-25T00:11:14.713Z,17.67
2017-01-25T00:11:55.437Z,17.69
2017-01-25T00:12:36.112Z,17.66
2017-01-25T00:13:16.691Z,17.69
2017-01-25T00:13:57.331Z,17.63
2017-01-25T00:14:37.970Z,17.57
2017-01-25T00:15:18.670Z,17.64
2017-01-25T00:15:59.304Z,17.57
2017-01-25T00:16:40.008Z,17.63
2017-01-25T00:17:20.602Z,17.55
2017-01-25T00:18:01.283Z,17.57
2017-01-25T00:18:41.946Z,17.62
2017-01-25T00:19:22.579Z,17.59
2017-01-25T00:20:03.221Z,17.53
2017-01-25T00:20:43.888Z,17.57
2017-01-25T00:21:24.519Z,17.57
2017-01-25T00:22:05.223Z,17.54
2017-01-25T00:22:45.901Z,17.55
2017-01-25T00:23:26.541Z,17.62
2017-01-25T00:24:07.217Z,17.55
2017-01-25T00:24:47.920Z,17.57
2017-01-25T00:25:28.566Z,17.54
2017-01-25T00:26:09.253Z,17.55
2017-01-25T00:26:49.957Z,17.59
2017-01-25T00:27:30.646Z,17.55
2017-01-25T00:28:11.276Z,17.51
2017-01-25T00:28:51.993Z,17.54
2017-01-25T00:29:32.633Z,17.51
2017-01-25T00:30:13.269Z,17.59
2017-01-25T00:30:53.958Z,17.55
2017-01-25T00:31:34.608Z,17.5
2017-01-25T00:32:15.246Z,17.55
2017-01-25T00:32:55.965Z,17.55
2017-01-25T00:33:36.630Z,17.54
2017-01-25T00:34:17.261Z,17.59
2017-01-25T00:34:57.955Z,17.48
2017-01-25T00:35:38.594Z,17.59
2017-01-25T00:36:19.241Z,17.59
2017-01-25T00:36:59.916Z,17.57
2017-01-25T00:37:40.656Z,17.48
2017-01-25T00:38:21.315Z,17.47
2017-01-25T00:39:01.985Z,17.44
2017-01-25T00:39:42.614Z,17.57
2017-01-25T00:40:23.250Z,17.47
2017-01-25T00:41:03.881Z,17.48
2017-01-25T00:41:44.526Z,17.51
2017-01-25T00:42:25.230Z,17.46
2017-01-25T00:43:05.848Z,17.51
2017-01-25T00:43:46.523Z,17.47
2017-01-25T00:44:27.164Z,17.48
2017-01-25T00:45:07.792Z,17.44
2017-01-25T00:45:48.464Z,17.47
2017-01-25T00:46:29.141Z,17.43
2017-01-25T00:47:09.758Z,17.48
2017-01-25T00:47:50.389Z,17.44
2017-01-25T00:48:31.072Z,17.47
2017-01-25T00:49:11.664Z,17.46
2017-01-25T00:49:52.298Z,17.5
2017-01-25T00:50:32.930Z,17.46
2017-01-25T00:51:13.615Z,17.48
2017-01-25T00:51:54.327Z,17.48
2017-01-25T00:52:35.016Z,17.46
2017-01-25T00:53:15.666Z,17.44
2017-01-25T00:53:56.305Z,17.44
2017-01-25T00:54:36.938Z,17.47
2017-01-25T00:55:17.568Z,17.44
2017-01-25T00:55:58.265Z,17.47
2017-01-25T00:56:38.985Z,17.5
2017-01-25T00:57:19.624Z,17.43
2017-01-25T00:58:00.256Z,17.47
2017-01-25T00:58:40.957Z,17.44
2017-01-25T00:59:21.611Z,17.43
2017-01-25T01:00:02.244Z,17.44
2017-01-25T01:00:42.934Z,17.48
2017-01-25T01:01:23.566Z,17.43
2017-01-25T01:02:04.272Z,17.46
2017-01-25T01:02:44.916Z,17.46
2017-01-25T01:03:25.564Z,17.46
2017-01-25T01:04:06.242Z,17.44
2017-01-25T01:04:46.921Z,17.44
2017-01-25T01:05:27.636Z,17.48
2017-01-25T01:06:08.184Z,17.43
2017-01-25T01:06:48.857Z,17.46
2017-01-25T01:07:29.481Z,17.4
2017-01-25T01:08:10.133Z,17.44
2017-01-25T01:08:50.813Z,17.46
2017-01-25T01:09:31.499Z,17.41
2017-01-25T01:10:12.170Z,17.4
2017-01-25T01:10:52.876Z,17.43
2017-01-25T01:11:33.504Z,17.43
2017-01-25T01:12:14.137Z,17.48
2017-01-25T01:12:54.832Z,17.44
2017-01-25T01:13:35.577Z,17.4
2017-01-25T01:14:16.206Z,17.38
2017-01-25T01:14:56.876Z,17.36
2017-01-25T01:15:37.596Z,17.38
2017-01-25T01:16:18.323Z,17.4
2017-01-25T01:16:58.908Z,17.41
2017-01-25T01:17:39.576Z,17.43
2017-01-25T01:18:20.221Z,17.43
2017-01-25T01:19:00.860Z,17.41
2017-01-25T01:19:41.509Z,17.41
2017-01-25T01:20:22.152Z,17.4
2017-01-25T01:21:02.789Z,17.4
2017-01-25T01:21:43.439Z,17.47
2017-01-25T01:22:24.162Z,17.32
2017-01-25T01:23:04.736Z,17.41
2017-01-25T01:23:45.442Z,17.4
2017-01-25T01:24:26.135Z,17.41
2017-01-25T01:25:06.764Z,17.4
2017-01-25T01:25:47.440Z,17.38
2017-01-25T01:26:28.116Z,17.41
2017-01-25T01:27:08.770Z,17.38
2017-01-25T01:27:49.415Z,17.36
2017-01-25T01:28:30.155Z,17.41
2017-01-25T01:29:10.785Z,17.35
2017-01-25T01:29:51.494Z,17.4
2017-01-25T01:30:32.250Z,17.43
2017-01-25T01:31:12.905Z,17.47
2017-01-25T01:31:53.548Z,17.35
2017-01-25T01:32:34.272Z,17.36
2017-01-25T01:33:14.900Z,17.38
2017-01-25T01:33:55.531Z,17.36
2017-01-25T01:34:36.289Z,17.33
2017-01-25T01:35:16.971Z,17.33
2017-01-25T01:35:57.601Z,17.3
2017-01-25T01:36:38.268Z,17.41
2017-01-25T01:37:18.934Z,17.36
2017-01-25T01:37:59.574Z,17.35
2017-01-25T01:38:41.296Z,17.33
2017-01-25T01:39:21.945Z,17.32
2017-01-25T01:40:02.618Z,17.4
2017-01-25T01:40:43.222Z,17.32
2017-01-25T01:41:23.880Z,17.36
2017-01-25T01:42:04.548Z,17.33
2017-01-25T01:42:45.155Z,17.32
2017-01-25T01:43:25.869Z,17.41
2017-01-25T01:44:06.610Z,17.32
2017-01-25T01:44:47.265Z,17.38
2017-01-25T01:45:27.928Z,17.35
2017-01-25T01:46:08.633Z,17.32
2017-01-25T01:46:49.266Z,17.29
2017-01-25T01:47:29.922Z,17.28
2017-01-25T01:48:10.626Z,17.28
2017-01-25T01:48:51.252Z,17.33
2017-01-25T01:49:31.961Z,17.35
2017-01-25T01:50:12.598Z,17.35
2017-01-25T01:50:53.223Z,17.35
2017-01-25T01:51:33.938Z,17.4
2017-01-25T01:52:14.580Z,17.25
2017-01-25T01:52:55.274Z,17.38
2017-01-25T01:53:35.932Z,17.38
2017-01-25T01:54:16.660Z,17.4
2017-01-25T01:54:57.390Z,17.35
2017-01-25T01:55:38.019Z,17.32
2017-01-25T01:56:18.677Z,17.36
2017-01-25T01:56:59.374Z,17.33
2017-01-25T01:57:40.028Z,17.33
2017-01-25T01:58:20.737Z,17.29
2017-01-25T01:59:01.486Z,17.36
2017-01-25T01:59:42.154Z,17.26
2017-01-25T02:00:22.790Z,17.28
2017-01-25T02:01:03.488Z,17.26
2017-01-25T02:01:44.223Z,17.28
2017-01-25T02:02:24.874Z,17.29
2017-01-25T02:03:05.565Z,17.26
2017-01-25T02:03:46.232Z,17.25
2017-01-25T02:04:26.966Z,17.25
2017-01-25T02:05:07.522Z,17.29
2017-01-25T02:05:48.199Z,17.26
2017-01-25T02:06:28.916Z,17.25
2017-01-25T02:07:09.575Z,17.25
2017-01-25T02:07:50.203Z,17.3
2017-01-25T02:08:30.904Z,17.23
2017-01-25T02:09:11.542Z,17.33
2017-01-25T02:09:52.244Z,17.25
2017-01-25T02:10:32.981Z,17.29
2017-01-25T02:11:13.606Z,17.36
2017-01-25T02:11:54.288Z,17.33
2017-01-25T02:12:34.966Z,17.25
2017-01-25T02:13:15.611Z,17.33
2017-01-25T02:13:56.304Z,17.28
2017-01-25T02:14:36.967Z,17.3
2017-01-25T02:15:17.658Z,17.26
2017-01-25T02:15:58.313Z,17.33
2017-01-25T02:16:39.076Z,17.25
2017-01-25T02:17:19.733Z,17.28
2017-01-25T02:18:00.389Z,17.33
2017-01-25T02:18:41.097Z,17.25
2017-01-25T02:19:21.833Z,17.35
2017-01-25T02:20:02.484Z,17.33
2017-01-25T02:20:43.153Z,17.3
2017-01-25T02:21:23.886Z,17.28
2017-01-25T02:22:04.643Z,17.29
2017-01-25T02:22:45.278Z,17.33
2017-01-25T02:23:25.972Z,17.33
2017-01-25T02:24:06.736Z,17.3
2017-01-25T02:24:47.371Z,17.28
2017-01-25T02:25:28.003Z,17.32
2017-01-25T02:26:08.663Z,17.33
2017-01-25T02:26:49.393Z,17.29
2017-01-25T02:27:30.035Z,17.2
2017-01-25T02:28:10.712Z,17.17
2017-01-25T02:28:51.423Z,17.25
2017-01-25T02:29:32.048Z,17.18
2017-01-25T02:30:12.677Z,17.17
2017-01-25T02:30:53.345Z,17.2
2017-01-25T02:31:33.973Z,17.22
2017-01-25T02:32:14.600Z,17.15
2017-01-25T02:32:55.302Z,17.25
2017-01-25T02:33:35.915Z,17.3
2017-01-25T02:34:16.549Z,17.25
2017-01-25T02:34:57.184Z,17.28
2017-01-25T02:35:37.808Z,17.17
2017-01-25T02:36:18.438Z,17.17
2017-01-25T02:36:59.093Z,17.28
2017-01-25T02:37:39.737Z,17.15
2017-01-25T02:38:20.432Z,17.25
2017-01-25T02:39:01.137Z,17.25
2017-01-25T02:39:41.791Z,17.2
2017-01-25T02:40:22.459Z,17.18
2017-01-25T02:41:03.154Z,17.2
2017-01-25T02:41:43.796Z,17.17
2017-01-25T02:42:24.439Z,17.25
2017-01-25T02:43:05.161Z,17.15
2017-01-25T02:43:45.862Z,17.14
2017-01-25T02:44:26.515Z,17.17
2017-01-25T02:45:07.265Z,17.23
2017-01-25T02:45:47.889Z,17.2
2017-01-25T02:46:28.522Z,17.25
2017-01-25T02:47:09.175Z,17.13
2017-01-25T02:47:49.814Z,17.23
2017-01-25T02:48:30.440Z,17.22
2017-01-25T02:49:11.142Z,17.17
2017-01-25T02:49:51.851Z,17.23
2017-01-25T02:50:32.488Z,17.2
2017-01-25T02:51:13.149Z,17.22
2017-01-25T02:51:53.876Z,17.25
2017-01-25T02:52:34.548Z,17.22
2017-01-25T02:53:15.160Z,17.17
2017-01-25T02:53:55.865Z,17.13
2017-01-25T02:54:36.511Z,17.15
2017-01-25T02:55:17.237Z,17.23
2017-01-25T02:55:57.877Z,17.1
2017-01-25T02:56:38.576Z,17.08
2017-01-25T02:57:19.196Z,17.17
2017-01-25T02:57:59.921Z,17.08
2017-01-25T02:58:40.633Z,17.22
2017-01-25T02:59:21.256Z,17.14
2017-01-25T03:00:01.951Z,17.17
2017-01-25T03:00:42.648Z,17.17
2017-01-25T03:01:23.390Z,17.15
2017-01-25T03:02:04.045Z,17.15
2017-01-25T03:02:44.788Z,17.13
2017-01-25T03:03:25.423Z,17.17
2017-01-25T03:04:06.059Z,17.14
2017-01-25T03:04:46.699Z,17.1
2017-01-25T03:05:27.327Z,17.15
2017-01-25T03:06:07.961Z,17.15
2017-01-25T03:06:48.634Z,17.14
2017-01-25T03:07:29.333Z,17.17
2017-01-25T03:08:09.970Z,17.11
2017-01-25T03:08:50.656Z,17.11
2017-01-25T03:09:31.350Z,17.08
2017-01-25T03:10:12.100Z,17.11
2017-01-25T03:10:52.632Z,17.11
2017-01-25T03:11:33.306Z,17.11
2017-01-25T03:12:13.964Z,17.14
2017-01-25T03:12:54.594Z,17.14
2017-01-25T03:13:35.223Z,17.14
2017-01-25T03:14:15.860Z,17.14
2017-01-25T03:14:56.552Z,17.14
2017-01-25T03:15:37.206Z,17.17
2017-01-25T03:16:17.874Z,17.1
2017-01-25T03:16:58.508Z,17.15
2017-01-25T03:17:39.131Z,17.11
2017-01-25T03:18:19.770Z,17.14
2017-01-25T03:19:00.471Z,17.14
2017-01-25T03:19:41.158Z,17.17
2017-01-25T03:20:21.830Z,17.13
2017-01-25T03:21:02.470Z,17.08
2017-01-25T03:21:43.142Z,17.13
2017-01-25T03:22:23.771Z,17.11
2017-01-25T03:23:04.422Z,17.14
2017-01-25T03:23:45.147Z,17.14
2017-01-25T03:24:25.816Z,17.11
2017-01-25T03:25:06.439Z,17.11
2017-01-25T03:25:47.064Z,17.17
2017-01-25T03:26:27.788Z,17.14
2017-01-25T03:27:08.427Z,17.03
2017-01-25T03:27:49.177Z,17.13
2017-01-25T03:28:29.915Z,17.06
2017-01-25T03:29:10.582Z,17.15
2017-01-25T03:29:51.224Z,17.11
2017-01-25T03:30:31.894Z,17.15
2017-01-25T03:31:12.525Z,17.15
2017-01-25T03:31:53.177Z,17.11
2017-01-25T03:32:33.909Z,17.15
2017-01-25T03:33:14.565Z,17.15
2017-01-25T03:33:55.198Z,17.18
2017-01-25T03:34:35.834Z,17.1
2017-01-25T03:35:16.524Z,17.04
2017-01-25T03:35:57.159Z,17.1
2017-01-25T03:36:37.788Z,17.1
2017-01-25T03:37:18.409Z,17.13
2017-01-25T03:37:59.054Z,17.07
2017-01-25T03:38:39.747Z,17.1
2017-01-25T03:39:27.300Z,17.11
2017-01-25T03:40:07.913Z,17.04
2017-01-25T03:40:48.567Z,17.13
2017-01-25T03:41:29.274Z,17.07
2017-01-25T03:42:09.902Z,17.11
2017-01-25T03:42:50.530Z,17.07
2017-01-25T03:43:31.202Z,17.13
2017-01-25T03:44:11.832Z,17.11
2017-01-25T03:44:52.553Z,17.08
2017-01-25T03:45:33.262Z,17.13
2017-01-25T03:46:13.885Z,17.03
2017-01-25T03:46:54.583Z,17.08
2017-01-25T03:47:35.294Z,17.06
2017-01-25T03:48:15.932Z,17.1
2017-01-25T03:48:56.570Z,17.1
2017-01-25T03:49:37.252Z,17.08
2017-01-25T03:50:17.938Z,17.08
2017-01-25T03:50:58.519Z,17.14
2017-01-25T03:51:39.172Z,17.13
2017-01-25T03:52:19.858Z,17.08
2017-01-25T03:53:00.487Z,17.1
2017-01-25T03:53:41.133Z,17.1
2017-01-25T03:54:21.834Z,17.06
2017-01-25T03:55:02.486Z,17.06
2017-01-25T03:55:43.206Z,17.08
2017-01-25T03:56:23.931Z,17.04
2017-01-25T03:57:04.577Z,17.07
2017-01-25T03:57:45.251Z,17.06
2017-01-25T03:58:25.904Z,17.1
2017-01-25T03:59:06.528Z,17
2017-01-25T03:59:47.253Z,17.03
2017-01-25T04:00:27.894Z,17.13
2017-01-25T04:01:08.524Z,17.06
2017-01-25T04:01:49.227Z,17.08
2017-01-25T04:02:29.867Z,17.04
2017-01-25T04:03:10.559Z,17.06
2017-01-25T04:03:51.177Z,17.07
2017-01-25T04:04:31.880Z,17
2017-01-25T04:05:12.515Z,17.08
2017-01-25T04:05:53.146Z,17.08
2017-01-25T04:06:33.779Z,17
2017-01-25T04:07:14.521Z,17.08
2017-01-25T04:07:55.179Z,16.99
2017-01-25T04:08:35.847Z,17.08
2017-01-25T04:09:16.468Z,17.03
2017-01-25T04:09:57.105Z,17.06
2017-01-25T04:10:37.799Z,17
2017-01-25T04:11:18.430Z,17.07
2017-01-25T04:11:59.059Z,17.03
2017-01-25T04:12:39.694Z,17.04
2017-01-25T04:13:20.385Z,17.03
2017-01-25T04:14:01.016Z,17.04
2017-01-25T04:14:41.647Z,17.06
2017-01-25T04:15:22.346Z,17.07
2017-01-25T04:16:02.970Z,17.03
2017-01-25T04:16:43.667Z,17.03
2017-01-25T04:17:24.404Z,17.08
2017-01-25T04:18:05.043Z,17.03
2017-01-25T04:18:45.711Z,17
2017-01-25T04:19:26.396Z,16.99
2017-01-25T04:20:07.035Z,17.03
2017-01-25T04:20:47.707Z,16.98
2017-01-25T04:21:28.344Z,16.99
2017-01-25T04:22:09.034Z,17.03
2017-01-25T04:22:49.606Z,16.98
2017-01-25T04:23:30.228Z,17
2017-01-25T04:24:10.855Z,17.04
2017-01-25T04:24:51.573Z,17.03
2017-01-25T04:25:32.269Z,16.99
2017-01-25T04:26:12.938Z,17.03
2017-01-25T04:26:53.579Z,17.03
2017-01-25T04:27:34.299Z,17.03
2017-01-25T04:28:15.009Z,16.99
2017-01-25T04:28:55.638Z,16.99
2017-01-25T04:29:36.267Z,16.98
2017-01-25T04:30:16.978Z,17.03
2017-01-25T04:30:57.608Z,16.98
2017-01-25T04:31:38.277Z,16.98
2017-01-25T04:32:18.935Z,16.98
2017-01-25T04:32:59.563Z,16.98
2017-01-25T04:33:40.202Z,16.98
2017-01-25T04:34:20.869Z,16.99
2017-01-25T04:35:01.513Z,16.93
2017-01-25T04:35:42.263Z,16.99
2017-01-25T04:36:22.908Z,16.99
2017-01-25T04:37:03.545Z,17
2017-01-25T04:37:44.187Z,16.95
2017-01-25T04:38:24.936Z,16.95
2017-01-25T04:39:05.592Z,16.96
2017-01-25T04:39:46.217Z,16.96
2017-01-25T04:40:26.937Z,16.96
2017-01-25T04:41:07.564Z,17.03
2017-01-25T04:41:48.214Z,16.96
2017-01-25T04:42:28.874Z,16.98
2017-01-25T04:43:09.586Z,16.99
2017-01-25T04:43:50.216Z,16.96
2017-01-25T04:44:30.857Z,16.96
2017-01-25T04:45:11.549Z,16.95
2017-01-25T04:45:52.171Z,16.93
2017-01-25T04:46:32.809Z,16.96
2017-01-25T04:47:13.443Z,16.98
2017-01-25T04:47:54.078Z,17
2017-01-25T04:48:34.721Z,16.98
2017-01-25T04:49:15.360Z,16.89
2017-01-25T04:49:55.986Z,16.92
2017-01-25T04:50:36.691Z,16.9
2017-01-25T04:51:17.339Z,16.86
2017-01-25T04:51:57.968Z,16.89
2017-01-25T04:52:38.601Z,16.95
2017-01-25T04:53:19.340Z,16.88
2017-01-25T04:53:59.969Z,16.9
2017-01-25T04:54:40.605Z,16.92
2017-01-25T04:55:21.304Z,16.95
2017-01-25T04:56:01.922Z,16.9
2017-01-25T04:56:42.552Z,16.86
2017-01-25T04:57:23.228Z,16.92
2017-01-25T04:58:03.858Z,17
2017-01-25T04:58:44.621Z,16.93
2017-01-25T04:59:25.322Z,16.92
2017-01-25T05:00:06.000Z,16.93
2017-01-25T05:00:46.657Z,16.86
2017-01-25T05:01:27.377Z,16.86
2017-01-25T05:02:08.089Z,16.89
2017-01-25T05:02:48.732Z,16.89
2017-01-25T05:03:29.356Z,16.86
2017-01-25T05:04:10.045Z,16.93
2017-01-25T05:04:50.673Z,16.92
2017-01-25T05:05:31.308Z,16.95
2017-01-25T05:06:11.961Z,16.9
2017-01-25T05:06:52.608Z,16.93
2017-01-25T05:07:33.382Z,16.95
2017-01-25T05:08:14.000Z,16.89
2017-01-25T05:08:54.683Z,16.93
2017-01-25T05:09:35.303Z,16.89
2017-01-25T05:10:15.943Z,16.86
2017-01-25T05:10:56.608Z,16.9
2017-01-25T05:11:37.239Z,16.88
2017-01-25T05:12:17.941Z,16.89
2017-01-25T05:12:58.588Z,16.92
2017-01-25T05:13:39.243Z,16.88
2017-01-25T05:14:20.003Z,16.92
2017-01-25T05:15:00.760Z,16.92
2017-01-25T05:15:41.404Z,16.86
2017-01-25T05:16:22.146Z,16.86
2017-01-25T05:17:02.821Z,16.92
2017-01-25T05:17:43.486Z,16.89
2017-01-25T05:18:24.140Z,16.89
2017-01-25T05:19:04.813Z,16.92
2017-01-25T05:19:45.461Z,16.93
2017-01-25T05:20:26.087Z,16.89
2017-01-25T05:21:06.813Z,16.89
2017-01-25T05:21:47.521Z,16.86
2017-01-25T05:22:28.148Z,16.83
2017-01-25T05:23:08.841Z,16.88
2017-01-25T05:23:49.542Z,16.9
2017-01-25T05:24:30.172Z,16.9
2017-01-25T05:25:10.799Z,16.85
2017-01-25T05:25:51.530Z,16.83
2017-01-25T05:26:32.157Z,16.95
2017-01-25T05:27:12.793Z,16.9
2017-01-25T05:27:53.524Z,16.86
2017-01-25T05:28:34.209Z,16.89
2017-01-25T05:29:14.831Z,16.9
2017-01-25T05:29:55.528Z,16.9
2017-01-25T05:30:36.210Z,16.89
2017-01-25T05:31:16.855Z,16.89
2017-01-25T05:31:57.540Z,16.9
2017-01-25T05:32:38.244Z,16.9
2017-01-25T05:33:18.891Z,16.89
2017-01-25T05:33:59.607Z,16.89
2017-01-25T05:34:40.262Z,16.95
2017-01-25T05:35:20.945Z,16.8
2017-01-25T05:36:01.559Z,16.85
2017-01-25T05:36:42.196Z,16.95
2017-01-25T05:37:22.816Z,16.88
2017-01-25T05:38:03.468Z,16.86
2017-01-25T05:38:44.099Z,16.9
2017-01-25T05:39:24.727Z,16.92
2017-01-25T05:40:05.436Z,16.89
2017-01-25T05:40:46.127Z,16.95
2017-01-25T05:41:26.769Z,16.86
2017-01-25T05:42:07.399Z,16.86
2017-01-25T05:42:48.083Z,16.89
2017-01-25T05:43:28.749Z,16.89
2017-01-25T05:44:09.393Z,16.86
2017-01-25T05:44:50.052Z,16.89
2017-01-25T05:45:30.702Z,16.89
2017-01-25T05:46:11.345Z,16.86
2017-01-25T05:46:52.015Z,16.86
2017-01-25T05:47:32.707Z,16.88
2017-01-25T05:48:13.335Z,16.93
2017-01-25T05:48:53.968Z,16.89
2017-01-25T05:49:34.634Z,16.9
2017-01-25T05:50:15.266Z,16.93
2017-01-25T05:50:55.952Z,16.89
2017-01-25T05:51:36.674Z,16.88
2017-01-25T05:52:17.327Z,16.9
2017-01-25T05:52:57.992Z,16.89
2017-01-25T05:53:38.665Z,16.86
2017-01-25T05:54:19.309Z,16.86
2017-01-25T05:54:59.957Z,16.89
2017-01-25T05:55:40.661Z,16.88
2017-01-25T05:56:21.367Z,16.92
2017-01-25T05:57:01.949Z,16.89
2017-01-25T05:57:42.609Z,16.92
2017-01-25T05:58:23.293Z,16.85
2017-01-25T05:59:03.935Z,16.88
2017-01-25T05:59:44.562Z,16.83
2017-01-25T06:00:25.299Z,16.85
2017-01-25T06:01:05.951Z,16.89
2017-01-25T06:01:46.658Z,16.81
2017-01-25T06:02:27.376Z,16.88
2017-01-25T06:03:08.014Z,16.86
2017-01-25T06:03:48.665Z,16.92
2017-01-25T06:04:29.383Z,16.85
2017-01-25T06:05:10.002Z,16.81
2017-01-25T06:05:50.703Z,16.86
2017-01-25T06:06:31.408Z,16.83
2017-01-25T06:07:12.147Z,16.9
2017-01-25T06:07:52.775Z,16.78
2017-01-25T06:08:33.416Z,16.81
2017-01-25T06:09:14.051Z,16.81
2017-01-25T06:09:54.677Z,16.86
2017-01-25T06:10:35.375Z,16.86
2017-01-25T06:11:16.037Z,16.8
2017-01-25T06:11:56.678Z,16.81
2017-01-25T06:12:37.352Z,16.8
2017-01-25T06:13:18.064Z,16.89
2017-01-25T06:13:58.705Z,16.81
2017-01-25T06:14:39.357Z,16.83
2017-01-25T06:15:20.079Z,16.92
2017-01-25T06:16:00.710Z,16.89
2017-01-25T06:16:41.346Z,16.86
2017-01-25T06:17:22.017Z,16.86
2017-01-25T06:18:02.650Z,16.78
2017-01-25T06:18:43.335Z,16.8
2017-01-25T06:19:23.962Z,16.81
2017-01-25T06:20:04.611Z,16.8
2017-01-25T06:20:45.216Z,16.78
2017-01-25T06:21:25.848Z,16.78
2017-01-25T06:22:06.490Z,16.75
2017-01-25T06:22:47.171Z,16.77
2017-01-25T06:23:27.906Z,16.77
2017-01-25T06:24:08.596Z,16.75
2017-01-25T06:24:49.292Z,16.81
2017-01-25T06:25:29.892Z,16.8
2017-01-25T06:26:10.545Z,16.81
2017-01-25T06:26:51.170Z,16.86
2017-01-25T06:27:31.857Z,16.85
2017-01-25T06:28:12.482Z,16.78
2017-01-25T06:28:53.112Z,16.81
2017-01-25T06:29:33.774Z,16.81
2017-01-25T06:30:14.418Z,16.78
2017-01-25T06:30:55.060Z,16.8
2017-01-25T06:31:35.815Z,16.83
2017-01-25T06:32:16.455Z,16.78
2017-01-25T06:32:57.088Z,16.75
2017-01-25T06:33:37.741Z,16.81
2017-01-25T06:34:18.374Z,16.8
2017-01-25T06:34:59.009Z,16.77
2017-01-25T06:35:39.691Z,16.88
2017-01-25T06:36:20.423Z,16.86
2017-01-25T06:37:01.039Z,16.74
2017-01-25T06:37:41.776Z,16.77
2017-01-25T06:38:22.438Z,16.77
2017-01-25T06:39:03.084Z,16.81
2017-01-25T06:39:43.757Z,16.81
2017-01-25T06:40:24.381Z,16.83
2017-01-25T06:41:05.006Z,16.75
2017-01-25T06:41:45.637Z,16.81
2017-01-25T06:42:26.273Z,16.83
2017-01-25T06:43:06.899Z,16.81
2017-01-25T06:43:47.556Z,16.8
2017-01-25T06:44:28.288Z,16.78
2017-01-25T06:45:08.969Z,16.83
2017-01-25T06:45:49.623Z,16.8
2017-01-25T06:46:30.368Z,16.8
2017-01-25T06:47:10.990Z,16.78
2017-01-25T06:47:51.623Z,16.81
2017-01-25T06:48:32.320Z,16.78
2017-01-25T06:49:12.920Z,16.78
2017-01-25T06:49:53.551Z,16.75
2017-01-25T06:50:34.198Z,16.77
2017-01-25T06:51:14.915Z,16.8
2017-01-25T06:51:55.555Z,16.75
2017-01-25T06:52:36.212Z,16.78
2017-01-25T06:53:16.881Z,16.77
2017-01-25T06:53:57.517Z,16.75
2017-01-25T06:54:38.137Z,16.77
2017-01-25T06:55:18.860Z,16.71
2017-01-25T06:55:59.490Z,16.78
2017-01-25T06:56:40.189Z,16.78
2017-01-25T06:57:20.934Z,16.75
2017-01-25T06:58:01.600Z,16.8
2017-01-25T06:58:42.260Z,16.78
2017-01-25T06:59:22.955Z,16.74
2017-01-25T07:00:03.586Z,16.7
2017-01-25T07:00:44.210Z,16.77
2017-01-25T07:01:24.957Z,16.75
2017-01-25T07:02:05.625Z,16.75
2017-01-25T07:02:46.261Z,16.77
2017-01-25T07:03:26.907Z,16.77
2017-01-25T07:04:07.596Z,16.8
2017-01-25T07:04:48.239Z,16.75
2017-01-25T07:05:29.010Z,16.8
2017-01-25T07:06:09.737Z,16.7
2017-01-25T07:06:50.383Z,16.78
2017-01-25T07:07:31.050Z,16.75
2017-01-25T07:08:11.740Z,16.71
2017-01-25T07:08:52.488Z,16.75
2017-01-25T07:09:33.120Z,16.77
2017-01-25T07:10:13.831Z,16.8
2017-01-25T07:10:54.564Z,16.7
2017-01-25T07:11:35.150Z,16.81
2017-01-25T07:12:15.816Z,16.68
2017-01-25T07:12:56.453Z,16.71
2017-01-25T07:13:37.128Z,16.77
2017-01-25T07:14:17.746Z,16.81
2017-01-25T07:14:58.393Z,16.78
2017-01-25T07:15:39.013Z,16.67
2017-01-25T07:16:19.639Z,16.75
2017-01-25T07:17:00.374Z,16.77
2017-01-25T07:17:41.030Z,16.67
2017-01-25T07:18:21.687Z,16.65
2017-01-25T07:19:02.449Z,16.71
2017-01-25T07:19:43.132Z,16.74
2017-01-25T07:20:23.765Z,16.7
2017-01-25T07:21:04.402Z,16.67
2017-01-25T07:21:45.108Z,16.73
2017-01-25T07:22:25.737Z,16.73
2017-01-25T07:23:06.495Z,16.65
2017-01-25T07:23:47.157Z,16.71
2017-01-25T07:24:27.811Z,16.71
2017-01-25T07:25:08.431Z,16.65
2017-01-25T07:25:50.129Z,16.71
2017-01-25T07:26:30.791Z,16.63
2017-01-25T07:27:11.440Z,16.7
2017-01-25T07:27:52.157Z,16.68
2017-01-25T07:28:32.783Z,16.68
2017-01-25T07:29:13.431Z,16.71
2017-01-25T07:29:54.144Z,16.65
2017-01-25T07:30:34.828Z,16.7
2017-01-25T07:31:15.445Z,16.74
2017-01-25T07:31:56.077Z,16.63
2017-01-25T07:32:36.747Z,16.71
2017-01-25T07:33:17.452Z,16.63
2017-01-25T07:33:58.098Z,16.63
2017-01-25T07:34:38.722Z,16.65
2017-01-25T07:35:19.362Z,16.73
2017-01-25T07:36:00.005Z,16.73
2017-01-25T07:36:40.668Z,16.65
2017-01-25T07:37:21.268Z,16.71
2017-01-25T07:38:01.914Z,16.7
2017-01-25T07:38:42.674Z,16.63
2017-01-25T07:39:23.299Z,16.68
2017-01-25T07:40:03.944Z,16.62
2017-01-25T07:40:44.599Z,16.71
2017-01-25T07:41:25.236Z,16.65
2017-01-25T07:42:05.868Z,16.71
2017-01-25T07:42:46.492Z,16.62
2017-01-25T07:43:27.132Z,16.73
2017-01-25T07:44:07.872Z,16.7
2017-01-25T07:44:48.575Z,16.7
2017-01-25T07:45:29.238Z,16.68
2017-01-25T07:46:09.856Z,16.68
2017-01-25T07:46:50.495Z,16.67
2017-01-25T07:47:31.164Z,16.7
2017-01-25T07:48:11.787Z,16.65
2017-01-25T07:48:52.437Z,16.73
2017-01-25T07:49:33.078Z,16.68
2017-01-25T07:50:13.697Z,16.73
2017-01-25T07:50:54.385Z,16.67
2017-01-25T07:51:35.104Z,16.63
2017-01-25T07:52:15.648Z,16.68
2017-01-25T07:52:56.298Z,16.71
2017-01-25T07:53:36.926Z,16.67
2017-01-25T07:54:17.554Z,16.68
2017-01-25T07:54:58.231Z,16.67
2017-01-25T07:55:38.853Z,16.68
2017-01-25T07:56:19.484Z,16.74
2017-01-25T07:57:00.113Z,16.65
2017-01-25T07:57:40.748Z,16.71
2017-01-25T07:58:21.478Z,16.68
2017-01-25T07:59:02.137Z,16.7
2017-01-25T07:59:42.779Z,16.62
2017-01-25T08:00:23.462Z,16.77
2017-01-25T08:01:04.163Z,16.73
2017-01-25T08:01:44.881Z,16.63
2017-01-25T08:02:25.522Z,16.67
2017-01-25T08:03:06.177Z,16.7
2017-01-25T08:03:46.916Z,16.6
2017-01-25T08:04:27.554Z,16.6
2017-01-25T08:05:08.201Z,16.58
2017-01-25T08:05:48.840Z,16.77
2017-01-25T08:06:29.480Z,16.7
2017-01-25T08:07:10.104Z,16.67
2017-01-25T08:07:50.739Z,16.68
2017-01-25T08:08:31.405Z,16.59
2017-01-25T08:09:12.006Z,16.62
2017-01-25T08:09:52.693Z,16.68
2017-01-25T08:10:33.323Z,16.65
2017-01-25T08:11:13.966Z,16.62
2017-01-25T08:11:54.601Z,16.62
2017-01-25T08:12:35.225Z,16.63
2017-01-25T08:13:15.864Z,16.6
2017-01-25T08:13:56.515Z,16.73
2017-01-25T08:14:37.161Z,16.62
2017-01-25T08:15:17.877Z,16.74
2017-01-25T08:15:59.451Z,16.67
2017-01-25T08:16:40.097Z,16.63
2017-01-25T08:17:20.816Z,16.62
2017-01-25T08:18:01.506Z,16.58
2017-01-25T08:18:42.133Z,16.58
2017-01-25T08:19:22.758Z,16.67
2017-01-25T08:20:03.414Z,16.58
2017-01-25T08:20:44.035Z,16.71
2017-01-25T08:21:24.656Z,16.67
2017-01-25T08:22:05.281Z,16.63
2017-01-25T08:22:45.914Z,16.58
2017-01-25T08:23:26.534Z,16.6
2017-01-25T08:24:07.252Z,16.73
2017-01-25T08:24:47.889Z,16.62
2017-01-25T08:25:28.538Z,16.7
2017-01-25T08:26:09.187Z,16.62
2017-01-25T08:26:49.817Z,16.68
2017-01-25T08:27:30.539Z,16.62
2017-01-25T08:28:11.171Z,16.65
2017-01-25T08:28:51.807Z,16.58
2017-01-25T08:29:32.455Z,16.62
2017-01-25T08:30:13.101Z,16.62
2017-01-25T08:30:53.753Z,16.68
2017-01-25T08:31:34.391Z,16.58
2017-01-25T08:32:15.088Z,16.65
2017-01-25T08:32:55.721Z,16.62
2017-01-25T08:33:36.341Z,16.67
2017-01-25T08:34:17.013Z,16.68
2017-01-25T08:34:57.664Z,16.59
2017-01-25T08:35:38.296Z,16.67
2017-01-25T08:36:18.952Z,16.67
2017-01-25T08:36:59.586Z,16.67
2017-01-25T08:37:40.213Z,16.65
2017-01-25T08:38:20.881Z,16.6
2017-01-25T08:39:01.512Z,16.55
2017-01-25T08:39:42.155Z,16.63
2017-01-25T08:40:22.897Z,16.59
2017-01-25T08:41:03.541Z,16.58
2017-01-25T08:41:44.221Z,16.68
2017-01-25T08:42:24.928Z,16.6
2017-01-25T08:43:05.561Z,16.63
2017-01-25T08:43:46.184Z,16.68
2017-01-25T08:44:26.873Z,16.56
2017-01-25T08:45:07.515Z,16.67
2017-01-25T08:45:48.145Z,16.58
2017-01-25T08:46:28.831Z,16.58